createdAt,value
2019-05-12T00:13:58.572Z,44.63
2019-05-12T00:16:38.772Z,44.92
2019-05-12T00:19:09.229Z,45.28
2019-05-12T00:21:44.465Z,45.45
2019-05-12T00:24:18.643Z,46.00
2019-05-12T00:27:02.118Z,46.52
2019-05-12T00:30:10.534Z,47.00
2019-05-12T00:32:51.035Z,47.19
2019-05-12T00:41:44.849Z,47.33
2019-05-12T00:44:20.535Z,47.22
2019-05-12T00:46:53.792Z,47.15
2019-05-12T00:49:54.537Z,47.24
2019-05-12T01:01:58.578Z,47.83
2019-05-12T01:04:24.838Z,47.60
2019-05-12T01:06:58.262Z,47.29
2019-05-12T01:09:33.385Z,47.04
2019-05-12T01:22:35.051Z,46.32
2019-05-12T01:25:08.721Z,46.14
2019-05-12T01:27:40.325Z,46.11
2019-05-12T01:30:28.670Z,46.10
2019-05-12T01:32:58.874Z,46.10
2019-05-12T01:35:29.456Z,46.10
2019-05-12T01:38:01.540Z,46.12
2019-05-12T01:40:31.246Z,46.07
2019-05-12T01:43:01.068Z,46.11
2019-05-12T01:45:31.153Z,46.11
2019-05-12T01:48:02.843Z,46.12
2019-05-12T01:50:33.386Z,46.14
2019-05-12T01:53:07.933Z,46.21
2019-05-12T01:55:39.530Z,46.28
2019-05-12T01:58:31.573Z,46.30
2019-05-12T02:05:38.269Z,46.34
2019-05-12T02:11:37.968Z,46.33
2019-05-12T02:14:09.506Z,46.35
2019-05-12T02:16:40.818Z,46.35
2019-05-12T02:19:13.847Z,46.29
2019-05-12T02:39:35.246Z,46.17
2019-05-12T02:42:27.973Z,46.21
2019-05-12T02:44:58.534Z,46.25
2019-05-12T02:47:34.410Z,46.24
2019-05-12T02:50:05.363Z,46.30
2019-05-12T02:52:35.021Z,46.41
2019-05-12T02:55:06.433Z,46.50
2019-05-12T02:57:38.143Z,46.50
2019-05-12T03:00:11.338Z,46.48
2019-05-12T03:02:46.668Z,46.49
2019-05-12T03:05:16.650Z,46.45
2019-05-12T03:07:48.169Z,46.50
2019-05-12T03:10:18.340Z,46.52
2019-05-12T03:12:49.654Z,46.46
2019-05-12T03:15:20.643Z,46.30
2019-05-12T03:17:50.766Z,46.23
2019-05-12T03:20:24.194Z,46.19
2019-05-12T03:22:55.395Z,46.27
2019-05-12T03:25:30.102Z,46.38
2019-05-12T03:27:58.281Z,46.39
2019-05-12T03:30:29.776Z,46.48
2019-05-12T03:32:59.943Z,46.47
2019-05-12T03:38:07.950Z,46.95
2019-05-12T03:40:38.930Z,46.93
2019-05-12T03:43:09.366Z,46.98
2019-05-12T03:45:39.347Z,46.89
2019-05-12T03:49:05.341Z,46.75
2019-05-12T03:52:15.912Z,46.75
2019-05-12T04:49:27.378Z,47.46
2019-05-12T04:52:27.397Z,47.43
2019-05-12T04:54:57.494Z,47.42
2019-05-12T04:57:28.135Z,47.37
2019-05-12T05:00:00.280Z,47.30
2019-05-12T05:02:30.773Z,47.29
2019-05-12T05:05:01.517Z,47.30
2019-05-12T05:07:35.650Z,47.32
2019-05-12T05:10:04.882Z,47.27
2019-05-12T05:12:34.998Z,47.17
2019-05-12T05:15:05.792Z,47.17
2019-05-12T05:17:36.762Z,47.20
2019-05-12T05:20:06.619Z,47.24
2019-05-12T05:22:38.208Z,47.21
2019-05-12T05:25:08.802Z,47.13
2019-05-12T05:27:39.763Z,47.02
2019-05-12T05:30:13.862Z,46.99
2019-05-12T05:32:44.642Z,46.95
2019-05-12T05:35:15.063Z,46.86
2019-05-12T05:37:44.913Z,46.87
2019-05-12T05:40:15.014Z,46.90
2019-05-12T05:42:49.090Z,46.96
2019-05-12T05:45:24.144Z,46.92
2019-05-12T05:48:35.096Z,46.82
2019-05-12T05:51:16.205Z,46.69
2019-05-12T05:53:54.022Z,46.65
2019-05-12T05:56:38.730Z,46.63
2019-05-12T05:59:07.751Z,46.58
2019-05-12T06:01:40.259Z,46.52
2019-05-12T06:04:14.120Z,46.36
2019-05-12T06:06:50.827Z,46.26
2019-05-12T06:09:20.063Z,46.24
2019-05-12T06:11:49.927Z,46.11
2019-05-12T06:14:19.533Z,45.96
2019-05-12T06:16:49.143Z,45.83
2019-05-12T06:19:25.702Z,45.67
2019-05-12T06:21:53.470Z,45.63
2019-05-12T06:24:24.335Z,45.65
2019-05-12T06:27:00.428Z,45.67
2019-05-12T06:29:26.420Z,45.59
2019-05-12T06:31:59.978Z,45.54
2019-05-12T06:34:29.091Z,45.46
2019-05-12T06:37:03.036Z,45.53
2019-05-12T06:39:30.187Z,45.59
2019-05-12T06:42:08.632Z,45.62
2019-05-12T06:44:33.502Z,45.63
2019-05-12T06:47:08.170Z,45.69
2019-05-12T06:49:34.489Z,45.72
2019-05-12T06:52:07.040Z,45.76
2019-05-12T06:54:35.479Z,45.80
2019-05-12T06:57:20.925Z,45.84
2019-05-12T06:59:36.532Z,45.82
2019-05-12T07:02:07.603Z,45.78
2019-05-12T07:04:41.288Z,45.66
2019-05-12T07:07:09.964Z,45.59
2019-05-12T07:09:50.064Z,45.48
2019-05-12T07:12:13.571Z,45.46
2019-05-12T07:14:43.830Z,45.39
2019-05-12T07:17:43.764Z,45.44
2019-05-12T07:20:14.557Z,45.40
2019-05-12T07:22:48.328Z,45.48
2019-05-12T07:25:16.188Z,45.33
2019-05-12T07:27:55.285Z,45.23
2019-05-12T07:30:24.025Z,45.02
2019-05-12T07:32:59.644Z,44.90
2019-05-12T07:35:29.103Z,44.80
2019-05-12T07:37:59.588Z,44.65
2019-05-12T07:40:34.714Z,44.35
2019-05-12T07:43:04.203Z,44.08
2019-05-12T07:45:34.215Z,43.93
2019-05-12T07:48:09.992Z,43.90
2019-05-12T07:50:35.297Z,43.77
2019-05-12T07:53:07.973Z,43.71
2019-05-12T07:55:39.587Z,43.72
2019-05-12T07:58:13.710Z,43.70
2019-05-12T08:00:40.390Z,43.65
2019-05-12T08:03:16.340Z,43.66
2019-05-12T08:05:43.754Z,43.63
2019-05-12T08:08:14.550Z,43.58
2019-05-12T08:10:44.340Z,43.56
2019-05-12T08:13:14.924Z,43.54
2019-05-12T08:15:50.184Z,43.29
2019-05-12T08:18:16.949Z,43.18
2019-05-12T08:20:46.377Z,42.96
2019-05-12T08:23:15.798Z,42.82
2019-05-12T08:25:45.244Z,42.73
2019-05-12T08:28:18.314Z,42.73
2019-05-12T08:30:50.480Z,42.54
2019-05-12T08:33:16.858Z,42.53
2019-05-12T08:35:46.312Z,42.48
2019-05-12T08:38:15.700Z,42.29
2019-05-12T08:40:50.827Z,42.06
2019-05-12T08:43:16.296Z,41.79
2019-05-12T08:45:45.671Z,41.66
2019-05-12T08:48:21.413Z,41.55
2019-05-12T08:50:46.311Z,41.48
2019-05-12T08:53:20.716Z,41.18
2019-05-12T08:55:47.766Z,41.04
2019-05-12T08:58:30.197Z,40.74
2019-05-12T09:00:55.182Z,40.63
2019-05-12T09:03:30.507Z,40.65
2019-05-12T09:06:00.286Z,40.29
2019-05-12T09:08:29.878Z,39.97
2019-05-12T09:10:59.379Z,39.67
2019-05-12T09:13:28.798Z,39.69
2019-05-12T09:15:59.032Z,39.45
2019-05-12T09:18:34.217Z,39.26
2019-05-12T09:20:59.746Z,38.38
2019-05-12T09:23:32.844Z,38.00
2019-05-12T09:26:00.420Z,37.97
2019-05-12T09:28:44.344Z,37.70
2019-05-12T09:31:03.705Z,37.80
2019-05-12T09:33:34.755Z,37.60
2019-05-12T09:36:04.753Z,37.37
2019-05-12T09:38:34.374Z,36.87
2019-05-12T09:41:05.445Z,36.97
2019-05-12T09:43:34.951Z,36.83
2019-05-12T09:46:04.400Z,36.65
2019-05-12T09:48:33.962Z,36.29
2019-05-12T09:51:05.810Z,36.11
2019-05-12T09:53:34.691Z,35.97
2019-05-12T09:56:04.519Z,35.65
2019-05-12T09:58:34.177Z,35.56
2019-05-12T10:01:03.781Z,35.47
2019-05-12T10:03:38.395Z,35.36
2019-05-12T10:06:04.945Z,35.14
2019-05-12T10:08:35.722Z,35.24
2019-05-12T10:11:10.319Z,35.27
2019-05-12T10:13:41.592Z,35.03
2019-05-12T10:16:13.310Z,34.98
2019-05-12T10:18:51.325Z,35.06
2019-05-12T10:21:17.615Z,34.79
2019-05-12T10:23:51.545Z,34.78
2019-05-12T10:26:18.292Z,34.28
2019-05-12T10:28:51.859Z,34.32
2019-05-12T10:31:19.062Z,33.85
2019-05-12T10:33:49.091Z,34.16
2019-05-12T10:36:19.614Z,33.92
2019-05-12T10:38:48.963Z,33.96
2019-05-12T10:41:18.502Z,33.88
2019-05-12T10:43:48.384Z,33.77
2019-05-12T10:46:27.184Z,33.63
2019-05-12T10:48:53.865Z,33.82
2019-05-12T10:51:23.873Z,33.70
2019-05-12T10:53:58.323Z,33.53
2019-05-12T10:56:24.593Z,33.43
2019-05-12T10:58:54.063Z,33.12
2019-05-12T11:01:24.353Z,32.71
2019-05-12T11:03:53.971Z,32.44
2019-05-12T11:06:24.313Z,32.46
2019-05-12T11:08:54.246Z,32.55
2019-05-12T11:11:24.136Z,32.72
2019-05-12T11:13:54.466Z,32.51
2019-05-12T11:16:31.102Z,32.32
2019-05-12T11:18:54.891Z,31.95
2019-05-12T11:21:24.195Z,32.05
2019-05-12T11:23:54.329Z,32.10
2019-05-12T11:26:23.891Z,32.02
2019-05-12T11:28:53.366Z,32.16
2019-05-12T11:31:24.355Z,31.88
2019-05-12T11:33:54.243Z,32.00
2019-05-12T11:36:24.511Z,32.72
2019-05-12T11:38:53.916Z,32.75
2019-05-12T11:41:28.202Z,32.87
2019-05-12T11:43:54.634Z,32.91
2019-05-12T11:46:24.057Z,32.55
2019-05-12T11:48:53.897Z,31.65
2019-05-12T11:51:28.880Z,30.89
2019-05-12T11:53:54.727Z,30.95
2019-05-12T11:56:24.409Z,30.81
2019-05-12T11:58:54.379Z,30.98
2019-05-12T12:01:25.553Z,31.25
2019-05-12T12:03:55.004Z,31.69
2019-05-12T12:06:24.522Z,31.68
2019-05-12T12:08:57.410Z,31.51
2019-05-12T12:11:28.098Z,31.33
2019-05-12T12:14:00.357Z,31.53
2019-05-12T12:16:29.235Z,31.53
2019-05-12T12:19:02.707Z,30.52
2019-05-12T12:21:31.937Z,29.89
2019-05-12T12:24:00.864Z,29.85
2019-05-12T12:26:31.624Z,29.59
2019-05-12T12:29:03.187Z,29.50
2019-05-12T12:31:49.231Z,30.01
2019-05-12T12:34:23.562Z,30.54
2019-05-12T12:36:50.172Z,30.64
2019-05-12T12:39:19.577Z,30.79
2019-05-12T12:41:58.356Z,30.77
2019-05-12T12:44:20.200Z,30.79
2019-05-12T12:46:51.185Z,31.25
2019-05-12T12:49:23.055Z,30.96
2019-05-12T12:51:52.838Z,31.03
2019-05-12T12:54:22.793Z,30.68
2019-05-12T12:56:53.907Z,29.83
2019-05-12T12:59:24.070Z,29.43
2019-05-12T13:01:53.830Z,29.30
2019-05-12T13:04:24.845Z,29.45
2019-05-12T13:06:54.469Z,29.21
2019-05-12T13:09:24.773Z,29.44
2019-05-12T13:11:55.763Z,29.00
2019-05-12T13:14:28.507Z,28.43
2019-05-12T13:16:56.837Z,27.80
2019-05-12T13:19:26.304Z,27.03
2019-05-12T13:21:55.698Z,26.13
2019-05-12T13:24:25.149Z,24.26
2019-05-12T13:26:54.565Z,24.26
2019-05-12T13:29:26.418Z,23.89
2019-05-12T13:31:55.030Z,24.40
2019-05-12T13:34:28.794Z,24.28
2019-05-12T13:36:55.548Z,24.28
2019-05-12T13:39:24.934Z,24.12
2019-05-12T13:41:58.537Z,23.56
2019-05-12T13:44:30.246Z,23.21
2019-05-12T13:46:58.851Z,22.71
2019-05-12T13:49:29.935Z,22.17
2019-05-12T13:51:58.755Z,21.82
2019-05-12T13:54:30.051Z,21.77
2019-05-12T13:57:03.846Z,21.01
2019-05-12T13:59:30.578Z,20.04
2019-05-12T14:01:59.954Z,20.12
2019-05-12T14:04:29.515Z,19.78
2019-05-12T14:06:58.989Z,19.31
2019-05-12T14:09:28.449Z,19.17
2019-05-12T14:11:57.789Z,18.84
2019-05-12T14:14:27.196Z,18.93
2019-05-12T14:16:59.442Z,19.04
2019-05-12T14:19:30.421Z,19.12
2019-05-12T14:21:58.848Z,18.97
2019-05-12T14:24:33.177Z,18.38
2019-05-12T14:26:59.431Z,18.40
2019-05-12T14:29:30.522Z,18.45
2019-05-12T14:32:03.070Z,18.26
2019-05-12T14:34:31.423Z,17.96
2019-05-12T14:37:08.507Z,17.94
2019-05-12T14:39:34.347Z,17.49
2019-05-12T14:42:04.322Z,17.85
2019-05-12T14:44:41.047Z,18.25
2019-05-12T14:47:05.145Z,17.97
2019-05-12T14:49:34.708Z,18.02
2019-05-12T14:52:04.328Z,17.50
2019-05-12T14:54:34.329Z,16.93
2019-05-12T14:57:03.862Z,16.53
2019-05-12T14:59:39.227Z,16.29
2019-05-12T15:02:06.187Z,16.27
2019-05-12T15:04:35.481Z,16.72
2019-05-12T15:07:08.675Z,17.85
2019-05-12T15:09:35.929Z,18.42
2019-05-12T15:12:05.257Z,18.44
2019-05-12T15:14:38.061Z,18.55
2019-05-12T15:17:05.745Z,18.14
2019-05-12T15:19:35.161Z,17.82
2019-05-12T15:22:07.668Z,17.32
2019-05-12T15:24:35.665Z,16.82
2019-05-12T15:27:05.087Z,16.48
2019-05-12T15:29:34.542Z,16.41
2019-05-12T15:32:06.008Z,16.23
2019-05-12T15:34:35.396Z,16.00
2019-05-12T15:37:04.733Z,16.55
2019-05-12T15:39:34.255Z,17.09
2019-05-12T15:42:03.773Z,17.32
2019-05-12T15:44:36.311Z,17.34
2019-05-12T15:47:04.308Z,17.24
2019-05-12T15:49:33.838Z,16.75
2019-05-12T15:52:03.710Z,16.62
2019-05-12T15:54:33.987Z,16.40
2019-05-12T15:57:04.432Z,16.31
2019-05-12T15:59:34.556Z,16.37
2019-05-12T16:02:13.176Z,16.39
2019-05-12T16:04:42.728Z,16.37
2019-05-12T16:07:09.302Z,16.52
2019-05-12T16:09:38.720Z,16.93
2019-05-12T16:12:18.679Z,17.24
2019-05-12T16:14:41.131Z,17.13
2019-05-12T16:17:10.360Z,17.04
2019-05-12T16:19:39.818Z,16.87
2019-05-12T16:22:09.341Z,16.60
2019-05-12T16:24:43.294Z,16.62
2019-05-12T16:27:09.868Z,16.47
2019-05-12T16:29:47.852Z,16.40
2019-05-12T16:32:23.812Z,16.49
2019-05-12T16:34:44.975Z,16.69
2019-05-12T16:37:14.100Z,16.61
2019-05-12T16:39:47.188Z,16.40
2019-05-12T16:42:14.961Z,16.43
2019-05-12T16:44:44.405Z,16.49
2019-05-12T16:47:18.620Z,16.59
2019-05-12T16:49:45.082Z,16.54
2019-05-12T16:52:14.519Z,16.62
2019-05-12T16:54:44.038Z,16.73
2019-05-12T16:57:17.968Z,16.76
2019-05-12T16:59:45.001Z,16.82
2019-05-12T17:02:14.659Z,16.87
2019-05-12T17:04:44.104Z,16.95
2019-05-12T17:07:18.925Z,16.83
2019-05-12T17:09:45.096Z,16.90
2019-05-12T17:12:14.794Z,16.73
2019-05-12T17:14:48.813Z,16.66
2019-05-12T17:17:20.987Z,16.72
2019-05-12T17:19:49.008Z,16.80
2019-05-12T17:22:18.365Z,16.75
2019-05-12T17:24:47.776Z,16.75
2019-05-12T17:27:23.882Z,16.65
2019-05-12T17:29:49.017Z,16.47
2019-05-12T17:32:18.485Z,16.33
2019-05-12T17:34:47.842Z,16.27
2019-05-12T17:37:17.196Z,16.17
2019-05-12T17:39:46.542Z,16.07
2019-05-12T17:42:21.700Z,16.12
2019-05-12T17:44:47.089Z,16.26
2019-05-12T17:47:21.526Z,16.13
2019-05-12T17:49:47.595Z,15.78
2019-05-12T17:52:18.651Z,15.83
2019-05-12T17:54:48.256Z,15.79
2019-05-12T17:57:19.904Z,15.62
2019-05-12T17:59:49.160Z,15.70
2019-05-12T18:02:18.586Z,15.82
2019-05-12T18:04:49.855Z,15.75
2019-05-12T18:07:19.520Z,15.79
2019-05-12T18:09:50.652Z,15.74
2019-05-12T18:12:20.053Z,15.47
2019-05-12T18:14:52.256Z,15.25
2019-05-12T18:17:20.539Z,15.32
2019-05-12T18:19:55.281Z,15.29
2019-05-12T18:22:23.399Z,15.45
2019-05-12T18:24:54.297Z,15.51
2019-05-12T18:27:23.624Z,15.61
2019-05-12T18:29:53.663Z,15.61
2019-05-12T18:32:24.377Z,15.36
2019-05-12T18:34:54.065Z,15.57
2019-05-12T18:37:24.176Z,15.74
2019-05-12T18:39:53.855Z,15.79
2019-05-12T18:42:24.558Z,15.95
2019-05-12T18:44:54.760Z,16.25
2019-05-12T18:47:31.864Z,16.33
2019-05-12T18:49:55.408Z,16.70
2019-05-12T18:52:29.240Z,16.98
2019-05-12T18:54:57.146Z,17.15
2019-05-12T18:57:27.189Z,17.26
2019-05-12T19:00:01.510Z,17.42
2019-05-12T19:02:28.643Z,17.55
2019-05-12T19:04:58.250Z,17.91
2019-05-12T19:07:39.365Z,18.23
2019-05-12T19:09:58.783Z,18.48
2019-05-12T19:12:32.348Z,18.86
2019-05-12T19:14:59.259Z,19.20
2019-05-12T19:17:28.620Z,19.58
2019-05-12T19:19:59.922Z,19.88
2019-05-12T19:22:29.157Z,20.13
2019-05-12T19:25:00.150Z,20.29
2019-05-12T19:27:29.570Z,20.93
2019-05-12T19:29:58.997Z,21.86
2019-05-12T19:32:29.399Z,22.74
2019-05-12T19:34:59.218Z,23.70
2019-05-12T19:37:30.094Z,24.62
2019-05-12T19:40:04.018Z,25.53
2019-05-12T19:42:30.920Z,26.25
2019-05-12T19:45:05.736Z,26.87
2019-05-12T19:47:35.605Z,27.56
2019-05-12T19:50:06.868Z,28.25
2019-05-12T19:52:33.718Z,28.90
2019-05-12T19:55:03.655Z,29.26
2019-05-12T19:57:33.665Z,29.58
2019-05-12T20:00:04.493Z,30.05
2019-05-12T20:02:34.311Z,30.33
2019-05-12T20:05:04.592Z,30.65
2019-05-12T20:07:34.482Z,31.15
2019-05-12T20:10:04.779Z,31.58
2019-05-12T20:12:34.485Z,31.67
2019-05-12T20:15:04.180Z,31.96
2019-05-12T20:17:34.118Z,32.30
2019-05-12T20:20:04.741Z,32.47
2019-05-12T20:22:34.393Z,32.97
2019-05-12T20:25:04.460Z,33.16
2019-05-12T20:27:34.517Z,33.43
2019-05-12T20:30:09.369Z,33.79
2019-05-12T20:32:35.447Z,34.09
2019-05-12T20:35:05.155Z,34.50
2019-05-12T20:37:34.635Z,34.79
2019-05-12T20:40:05.661Z,34.89
2019-05-12T20:42:42.277Z,35.12
2019-05-12T20:45:06.625Z,35.36
2019-05-12T20:47:39.046Z,35.53
2019-05-12T20:50:07.407Z,35.73
2019-05-12T20:52:39.368Z,35.87
2019-05-12T20:55:08.466Z,36.22
2019-05-12T20:57:40.148Z,36.25
2019-05-12T21:00:09.531Z,36.48
2019-05-12T21:02:38.935Z,36.68
2019-05-12T21:05:14.419Z,36.85
2019-05-12T21:07:39.654Z,36.96
2019-05-12T21:10:09.665Z,37.02
2019-05-12T21:12:40.014Z,37.25
2019-05-12T21:15:17.346Z,37.35
2019-05-12T21:17:44.234Z,37.44
2019-05-12T21:20:16.584Z,37.46
2019-05-12T21:22:45.681Z,37.59
2019-05-12T21:25:15.068Z,37.99
2019-05-12T21:27:47.824Z,38.01
2019-05-12T21:30:16.562Z,38.16
2019-05-12T21:32:55.530Z,38.26
2019-05-12T21:35:22.291Z,38.30
2019-05-12T21:37:48.593Z,38.45
2019-05-12T21:40:24.207Z,38.51
2019-05-12T21:42:49.293Z,38.61
2019-05-12T21:45:20.316Z,38.91
2019-05-12T21:47:49.813Z,38.91
2019-05-12T21:50:24.122Z,39.00
2019-05-12T21:52:56.432Z,39.04
2019-05-12T21:55:24.041Z,39.25
2019-05-12T21:57:53.824Z,39.45
2019-05-12T22:00:31.540Z,39.71
2019-05-12T22:03:02.495Z,39.90
2019-05-12T22:05:49.994Z,40.00
2019-05-12T22:08:06.502Z,40.22
2019-05-12T22:10:35.869Z,40.36
2019-05-12T22:13:13.984Z,40.60
2019-05-12T22:15:36.538Z,40.69
2019-05-12T22:18:05.854Z,40.88
2019-05-12T22:20:36.029Z,40.94
2019-05-12T22:23:11.525Z,41.04
2019-05-12T22:25:36.685Z,41.12
2019-05-12T22:28:10.059Z,41.12
2019-05-12T22:30:37.180Z,41.56
2019-05-12T22:33:10.664Z,41.52
2019-05-12T22:35:37.756Z,41.62
2019-05-12T22:38:15.113Z,41.75
2019-05-12T22:40:38.273Z,41.85
2019-05-12T22:43:07.737Z,42.12
2019-05-12T22:45:44.344Z,42.47
2019-05-12T22:48:08.306Z,42.82
2019-05-12T22:50:37.768Z,42.85
2019-05-12T22:53:07.145Z,43.00
2019-05-12T22:55:36.643Z,42.90
2019-05-12T22:58:10.561Z,42.82
2019-05-12T23:00:37.491Z,42.93
2019-05-12T23:03:11.539Z,42.99
2019-05-12T23:05:37.968Z,42.99
2019-05-12T23:08:08.565Z,43.08
2019-05-12T23:10:41.576Z,43.16
2019-05-12T23:13:09.418Z,43.48
2019-05-12T23:15:44.430Z,43.40
2019-05-12T23:18:10.028Z,43.41
2019-05-12T23:20:39.470Z,43.40
2019-05-12T23:23:13.868Z,43.45
2019-05-12T23:25:40.027Z,43.53
2019-05-12T23:28:10.640Z,43.55
2019-05-12T23:30:46.455Z,43.57
2019-05-12T23:33:13.811Z,43.65
2019-05-12T23:35:44.341Z,43.82
2019-05-12T23:38:18.800Z,43.85
2019-05-12T23:40:44.711Z,44.10
2019-05-12T23:43:14.639Z,44.35
2019-05-12T23:45:44.587Z,44.31
2019-05-12T23:48:14.358Z,44.45
2019-05-12T23:50:44.241Z,44.44
2019-05-12T23:53:14.124Z,44.48
2019-05-12T23:55:43.939Z,44.70
2019-05-12T23:58:14.431Z,44.76
